South Lorain, Ohio
Current Conditions -  °F | °C
As of 6:53 AM on Thursday 23 Oct 2014 (Local Time) from KLPR Reporting Station
Few Clouds Few Clouds  
Wind Chill: 39°   Ceiling: Unl
Heat Index: 42°   Visibility: 10mi
Dew Point: 42°   Wind: 5mph
Humidity: 100%   Direction: 310°NW
Pressure: 30.22"   Gusts: NA
Location:  41.4372°N, 82.1333°W
Report Text: KLPR 231053Z AUTO 31004KT 10SM FEW014 06/06 A3022 RMK AO2 SLP237 T00560056 TSNO
Loading
Personal Weather Stations






























Interactive Weather Map
Tropical Storm Tracking
New forecast layout! Learn more

10-Day Weather Forecast

Advertisements
Track Severe Weather on mobile